createdAt,value
2023-03-17T00:00:26.462Z,0.65
2023-03-17T00:03:31.107Z,0.61
2023-03-17T00:06:34.086Z,0.71
2023-03-17T00:09:37.312Z,0.81
2023-03-17T00:12:41.405Z,0.82
2023-03-17T00:15:46.244Z,0.79
2023-03-17T00:18:51.656Z,0.70
2023-03-17T00:21:56.938Z,0.66
2023-03-17T00:25:00.093Z,0.62
2023-03-17T00:28:19.413Z,0.68
2023-03-17T00:31:25.740Z,0.96
2023-03-17T00:34:28.906Z,0.87
2023-03-17T00:37:31.943Z,0.68
2023-03-17T00:40:35.133Z,0.68
2023-03-17T00:43:39.140Z,0.50
2023-03-17T00:46:42.671Z,0.47
2023-03-17T00:49:47.626Z,0.65
2023-03-17T00:52:53.463Z,0.67
2023-03-17T00:55:56.515Z,0.59
2023-03-17T00:59:00.949Z,0.51
2023-03-17T01:02:03.837Z,0.43
2023-03-17T01:05:07.278Z,0.33
2023-03-17T01:08:10.551Z,0.26
2023-03-17T01:11:19.320Z,0.18
2023-03-17T01:14:24.903Z,0.21
2023-03-17T01:17:29.198Z,0.26
2023-03-17T01:20:33.418Z,0.33
2023-03-17T01:23:37.485Z,0.40
2023-03-17T01:26:40.579Z,0.48
2023-03-17T01:29:43.964Z,0.50
2023-03-17T01:32:47.137Z,0.54
2023-03-17T01:35:51.029Z,0.59
2023-03-17T01:38:54.073Z,0.49
2023-03-17T01:42:01.469Z,0.46
2023-03-17T01:45:08.464Z,0.64
2023-03-17T01:48:12.228Z,0.79
2023-03-17T01:51:19.930Z,0.73
2023-03-17T01:54:36.306Z,0.70
2023-03-17T01:57:51.495Z,0.55
2023-03-17T02:00:57.170Z,0.42
2023-03-17T02:04:01.121Z,0.30
2023-03-17T02:07:05.301Z,0.19
2023-03-17T02:10:10.316Z,0.14
2023-03-17T02:13:14.154Z,0.06
2023-03-17T02:16:18.016Z,0.02
2023-03-17T02:19:23.404Z,-0.03
2023-03-17T02:22:26.597Z,-0.09
2023-03-17T02:25:30.897Z,-0.17
2023-03-17T02:28:34.532Z,-0.19
2023-03-17T02:31:38.047Z,-0.19
2023-03-17T02:34:40.963Z,-0.20
2023-03-17T02:37:44.284Z,-0.17
2023-03-17T02:40:47.233Z,-0.17
2023-03-17T02:43:52.195Z,-0.13
2023-03-17T02:46:56.749Z,-0.15
2023-03-17T02:50:00.504Z,-0.16
2023-03-17T02:53:03.392Z,-0.13
2023-03-17T02:56:07.715Z,-0.15
2023-03-17T02:59:10.704Z,-0.12
2023-03-17T03:02:15.137Z,-0.17
2023-03-17T03:05:18.652Z,-0.19
2023-03-17T03:08:22.494Z,-0.17
2023-03-17T03:11:25.595Z,-0.21
2023-03-17T03:14:28.933Z,-0.19
2023-03-17T03:17:31.897Z,-0.17
2023-03-17T03:20:35.107Z,-0.17
2023-03-17T03:23:38.165Z,-0.20
2023-03-17T03:26:41.504Z,-0.04
2023-03-17T03:29:44.507Z,-0.08
2023-03-17T03:32:47.941Z,-0.15
2023-03-17T03:35:50.897Z,-0.25
2023-03-17T03:38:55.652Z,-0.30
2023-03-17T03:41:58.714Z,-0.29
2023-03-17T03:45:02.971Z,-0.29
2023-03-17T03:48:06.237Z,-0.28
2023-03-17T03:51:09.457Z,-0.29
2023-03-17T03:54:12.411Z,-0.24
2023-03-17T03:57:15.921Z,-0.17
2023-03-17T04:00:19.832Z,-0.22
2023-03-17T04:03:23.076Z,-0.20
2023-03-17T04:06:26.033Z,-0.16
2023-03-17T04:09:29.241Z,-0.19
2023-03-17T04:12:32.525Z,-0.12
2023-03-17T04:15:35.954Z,-0.13
2023-03-17T04:18:38.966Z,0.08
2023-03-17T04:21:43.486Z,0.07
2023-03-17T04:24:46.366Z,0.02
2023-03-17T04:27:51.097Z,-0.04
2023-03-17T04:30:54.010Z,-0.10
2023-03-17T04:33:57.244Z,-0.19
2023-03-17T04:37:00.247Z,-0.33
2023-03-17T04:40:04.063Z,-0.38
2023-03-17T04:43:07.334Z,-0.45
2023-03-17T04:46:11.123Z,-0.43
2023-03-17T04:49:14.060Z,-0.42
2023-03-17T04:52:17.328Z,-0.33
2023-03-17T04:55:20.949Z,-0.17
2023-03-17T04:58:30.766Z,-0.16
2023-03-17T05:01:34.171Z,0.00
2023-03-17T05:04:37.887Z,0.14
2023-03-17T05:07:41.698Z,-0.02
2023-03-17T05:10:44.935Z,-0.06
2023-03-17T05:13:48.721Z,-0.09
2023-03-17T05:16:52.205Z,-0.07
2023-03-17T05:19:55.933Z,-0.06
2023-03-17T05:22:59.825Z,0.06
2023-03-17T05:26:03.457Z,0.06
2023-03-17T05:29:09.110Z,0.31
2023-03-17T05:32:13.625Z,0.51
2023-03-17T05:35:19.023Z,0.60
2023-03-17T05:38:23.269Z,0.65
2023-03-17T05:41:29.917Z,0.75
2023-03-17T05:44:32.935Z,0.74
2023-03-17T05:47:36.830Z,0.63
2023-03-17T05:50:40.296Z,0.81
2023-03-17T05:53:43.644Z,0.93
2023-03-17T05:56:46.831Z,1.04
2023-03-17T05:59:51.030Z,1.18
2023-03-17T06:02:54.125Z,1.29
2023-03-17T06:05:57.681Z,1.48
2023-03-17T06:09:01.301Z,1.64
2023-03-17T06:12:05.191Z,1.83
2023-03-17T06:15:09.912Z,1.92
2023-03-17T06:18:13.057Z,2.00
2023-03-17T06:21:16.445Z,2.11
2023-03-17T06:24:19.634Z,2.08
2023-03-17T06:27:22.924Z,2.25
2023-03-17T06:30:26.259Z,2.43
2023-03-17T06:33:30.193Z,2.64
2023-03-17T06:36:33.916Z,2.83
2023-03-17T06:39:37.585Z,2.98
2023-03-17T06:42:40.835Z,2.98
2023-03-17T06:45:43.744Z,3.26
2023-03-17T06:48:46.993Z,3.08
2023-03-17T06:51:49.927Z,3.36
2023-03-17T06:54:53.120Z,3.23
2023-03-17T06:57:56.145Z,3.48
2023-03-17T07:01:00.475Z,3.49
2023-03-17T07:04:03.401Z,3.64
2023-03-17T07:07:06.763Z,3.54
2023-03-17T07:10:12.564Z,3.74
2023-03-17T07:13:16.385Z,3.74
2023-03-17T07:16:21.494Z,3.53
2023-03-17T07:19:24.626Z,3.65
2023-03-17T07:22:28.586Z,4.05
2023-03-17T07:25:32.010Z,4.07
2023-03-17T07:28:35.200Z,4.37
2023-03-17T07:31:38.786Z,4.61
2023-03-17T07:34:41.865Z,4.68
2023-03-17T07:37:45.069Z,4.83
2023-03-17T07:40:49.120Z,4.58
2023-03-17T07:43:52.471Z,4.76
2023-03-17T07:46:55.882Z,4.79
2023-03-17T07:49:59.019Z,5.29
2023-03-17T07:53:03.264Z,5.58
2023-03-17T07:56:10.819Z,5.49
2023-03-17T07:59:14.094Z,5.48
2023-03-17T08:02:18.813Z,5.41
2023-03-17T08:05:22.300Z,5.52
2023-03-17T08:08:26.473Z,5.59
2023-03-17T08:11:30.026Z,5.84
2023-03-17T08:14:33.534Z,6.01
2023-03-17T08:17:37.411Z,5.83
2023-03-17T08:20:40.892Z,6.15
2023-03-17T08:23:44.300Z,6.40
2023-03-17T08:26:50.535Z,6.56
2023-03-17T08:29:53.767Z,6.82
2023-03-17T08:32:56.910Z,6.64
2023-03-17T08:36:00.441Z,6.66
2023-03-17T08:39:04.908Z,6.85
2023-03-17T08:42:08.398Z,6.80
2023-03-17T08:45:12.838Z,6.75
2023-03-17T08:48:16.202Z,6.94
2023-03-17T08:51:22.140Z,6.94
2023-03-17T08:54:26.699Z,6.91
2023-03-17T08:57:29.611Z,6.91
2023-03-17T09:00:33.152Z,7.17
2023-03-17T09:03:38.662Z,7.33
2023-03-17T09:07:01.337Z,7.28
2023-03-17T09:10:07.283Z,7.10
2023-03-17T09:13:10.643Z,7.33
2023-03-17T09:16:14.817Z,7.31
2023-03-17T09:19:18.232Z,7.14
2023-03-17T09:22:21.334Z,7.40
2023-03-17T09:25:25.149Z,7.51
2023-03-17T09:28:29.309Z,7.58
2023-03-17T09:31:33.995Z,7.69
2023-03-17T09:34:37.039Z,7.86
2023-03-17T09:37:40.261Z,8.02
2023-03-17T09:41:13.162Z,8.07
2023-03-17T09:44:27.194Z,8.11
2023-03-17T09:48:10.045Z,8.27
2023-03-17T09:51:14.705Z,8.52
2023-03-17T09:54:29.637Z,8.60
2023-03-17T09:57:38.448Z,8.80
2023-03-17T10:00:41.691Z,8.90
2023-03-17T10:03:45.241Z,8.97
2023-03-17T10:06:49.729Z,8.94
2023-03-17T10:10:03.213Z,8.88
2023-03-17T10:13:42.439Z,9.09
2023-03-17T10:17:04.477Z,8.98
2023-03-17T10:20:11.843Z,8.98
2023-03-17T10:23:17.765Z,9.19
2023-03-17T10:26:42.706Z,8.92
2023-03-17T10:29:48.515Z,9.21
2023-03-17T10:32:53.063Z,9.13
2023-03-17T10:35:57.173Z,9.32
2023-03-17T10:39:05.365Z,9.51
2023-03-17T10:42:11.435Z,9.56
2023-03-17T10:45:34.987Z,9.58
2023-03-17T10:48:40.102Z,9.83
2023-03-17T10:51:46.476Z,10.22
2023-03-17T10:54:53.501Z,10.32
2023-03-17T10:58:06.121Z,10.13
2023-03-17T11:01:29.347Z,10.56
2023-03-17T11:04:35.861Z,10.54
2023-03-17T11:07:41.075Z,10.60
2023-03-17T11:10:44.979Z,10.92
2023-03-17T11:13:48.994Z,11.21
2023-03-17T11:16:59.219Z,11.15
2023-03-17T11:20:13.891Z,10.38
2023-03-17T11:23:23.765Z,10.83
2023-03-17T11:26:45.730Z,11.11
2023-03-17T11:30:05.362Z,11.47
2023-03-17T11:33:09.358Z,11.73
2023-03-17T11:37:00.239Z,11.70
2023-03-17T11:40:15.900Z,12.05
2023-03-17T11:43:19.171Z,11.99
2023-03-17T11:46:41.098Z,11.88
2023-03-17T11:49:46.211Z,12.27
2023-03-17T11:52:56.468Z,12.92
2023-03-17T11:56:29.053Z,12.78
2023-03-17T11:59:58.802Z,13.95
2023-03-17T12:03:18.331Z,14.50
2023-03-17T12:06:25.839Z,13.62
2023-03-17T12:09:37.424Z,13.83
2023-03-17T12:12:44.688Z,14.72
2023-03-17T12:15:56.880Z,15.09
2023-03-17T12:19:09.871Z,15.93
2023-03-17T12:22:26.341Z,16.08
2023-03-17T12:25:36.558Z,14.78
2023-03-17T12:28:50.208Z,15.33
2023-03-17T12:32:03.887Z,15.94
2023-03-17T12:35:35.029Z,14.34
2023-03-17T12:38:44.356Z,15.56
2023-03-17T12:42:11.782Z,16.14
2023-03-17T12:45:53.239Z,17.40
2023-03-17T12:49:06.845Z,16.09
2023-03-17T12:52:22.097Z,15.26
2023-03-17T12:55:27.436Z,15.63
2023-03-17T12:58:38.699Z,15.17
2023-03-17T13:01:46.080Z,15.21
2023-03-17T13:04:57.968Z,16.60
2023-03-17T13:08:05.730Z,15.92
2023-03-17T13:11:20.197Z,17.14
2023-03-17T13:14:41.394Z,18.10
2023-03-17T13:17:45.556Z,17.92
2023-03-17T13:20:57.678Z,17.06
2023-03-17T13:24:16.167Z,17.86
2023-03-17T13:27:32.308Z,17.32
2023-03-17T13:30:35.732Z,19.11
2023-03-17T13:33:46.641Z,19.32
2023-03-17T13:37:33.289Z,18.06
2023-03-17T13:40:36.288Z,17.56
2023-03-17T13:44:05.642Z,18.71
2023-03-17T13:47:25.509Z,20.13
2023-03-17T13:50:33.037Z,19.69
2023-03-17T13:53:47.198Z,18.72
2023-03-17T13:56:51.445Z,19.99
2023-03-17T14:00:15.913Z,18.65
2023-03-17T14:03:40.318Z,17.76
2023-03-17T14:06:45.284Z,18.14
2023-03-17T14:09:53.999Z,19.61
2023-03-17T14:13:26.414Z,18.51
2023-03-17T14:16:36.582Z,19.43
2023-03-17T14:19:41.958Z,19.64
2023-03-17T14:22:47.831Z,19.41
2023-03-17T14:25:51.483Z,18.35
2023-03-17T14:28:55.799Z,19.17
2023-03-17T14:32:16.023Z,17.64
2023-03-17T14:35:20.060Z,16.57
2023-03-17T14:38:31.759Z,16.44
2023-03-17T14:41:36.250Z,17.88
2023-03-17T14:44:41.483Z,19.67
2023-03-17T14:47:44.823Z,18.81
2023-03-17T14:50:55.622Z,18.42
2023-03-17T14:54:01.421Z,18.25
2023-03-17T14:57:08.753Z,17.63
2023-03-17T15:00:18.808Z,16.98
2023-03-17T15:03:24.328Z,17.92
2023-03-17T15:06:31.257Z,18.52
2023-03-17T15:09:34.177Z,17.56
2023-03-17T15:12:37.636Z,17.60
2023-03-17T15:15:41.812Z,16.78
2023-03-17T15:18:45.619Z,18.62
2023-03-17T15:21:49.048Z,18.20
2023-03-17T15:25:03.614Z,19.51
2023-03-17T15:28:18.418Z,17.84
2023-03-17T15:31:28.462Z,17.94
2023-03-17T15:34:31.548Z,16.04
2023-03-17T15:37:35.670Z,16.45
2023-03-17T15:40:40.761Z,15.58
2023-03-17T15:43:45.517Z,17.13
2023-03-17T15:46:48.897Z,17.78
2023-03-17T15:49:56.372Z,17.17
2023-03-17T15:52:59.340Z,17.37
2023-03-17T15:56:03.704Z,15.98
2023-03-17T15:59:06.681Z,16.13
2023-03-17T16:02:29.854Z,15.43
2023-03-17T16:05:34.504Z,15.21
2023-03-17T16:08:38.621Z,14.58
2023-03-17T16:11:41.946Z,13.76
2023-03-17T16:14:45.791Z,14.12
2023-03-17T16:17:50.688Z,13.66
2023-03-17T16:20:54.384Z,13.02
2023-03-17T16:23:58.506Z,13.40
2023-03-17T16:27:01.160Z,12.90
2023-03-17T16:30:06.202Z,14.10
2023-03-17T16:33:17.296Z,13.38
2023-03-17T16:36:23.400Z,13.24
2023-03-17T16:39:26.465Z,12.88
2023-03-17T16:42:32.172Z,11.14
2023-03-17T16:45:35.305Z,10.88
2023-03-17T16:48:39.500Z,10.72
2023-03-17T16:51:43.336Z,10.05
2023-03-17T16:54:46.464Z,9.25
2023-03-17T16:57:51.684Z,9.40
2023-03-17T17:01:00.328Z,9.26
2023-03-17T17:04:03.304Z,9.12
2023-03-17T17:07:06.538Z,9.01
2023-03-17T17:10:12.198Z,8.78
2023-03-17T17:13:16.192Z,8.74
2023-03-17T17:16:34.718Z,8.64
2023-03-17T17:19:41.404Z,8.43
2023-03-17T17:22:46.152Z,8.18
2023-03-17T17:25:51.283Z,8.18
2023-03-17T17:28:55.081Z,7.96
2023-03-17T17:32:05.051Z,7.90
2023-03-17T17:35:10.463Z,7.83
2023-03-17T17:38:28.942Z,7.78
2023-03-17T17:41:34.123Z,7.68
2023-03-17T17:44:38.801Z,7.67
2023-03-17T17:47:44.331Z,7.48
2023-03-17T17:50:50.121Z,7.44
2023-03-17T17:53:56.576Z,7.46
2023-03-17T17:57:00.908Z,7.29
2023-03-17T18:00:07.431Z,7.25
2023-03-17T18:03:12.346Z,7.17
2023-03-17T18:06:18.449Z,7.14
2023-03-17T18:09:24.212Z,7.15
2023-03-17T18:12:29.116Z,7.17
2023-03-17T18:15:33.562Z,7.13
2023-03-17T18:18:42.850Z,7.03
2023-03-17T18:21:48.835Z,7.06
2023-03-17T18:24:53.946Z,6.91
2023-03-17T18:27:58.222Z,6.91
2023-03-17T18:31:24.816Z,6.97
2023-03-17T18:34:36.190Z,6.93
2023-03-17T18:37:42.505Z,6.72
2023-03-17T18:40:47.189Z,6.77
2023-03-17T18:43:52.444Z,6.65
2023-03-17T18:46:56.570Z,6.74
2023-03-17T18:50:01.845Z,6.65
2023-03-17T18:53:05.332Z,6.66
2023-03-17T18:56:11.331Z,6.65
2023-03-17T18:59:16.161Z,6.58
2023-03-17T19:02:21.004Z,6.59
2023-03-17T19:05:27.627Z,6.53
2023-03-17T19:08:32.474Z,6.55
2023-03-17T19:11:37.171Z,6.46
2023-03-17T19:14:42.112Z,6.48
2023-03-17T19:17:48.319Z,6.49
2023-03-17T19:20:53.194Z,6.48
2023-03-17T19:23:59.903Z,6.50
2023-03-17T19:27:05.813Z,6.41
2023-03-17T19:30:10.832Z,6.33
2023-03-17T19:33:16.618Z,6.26
2023-03-17T19:36:20.753Z,6.24
2023-03-17T19:39:30.172Z,6.37
2023-03-17T19:42:35.892Z,6.17
2023-03-17T19:45:43.069Z,6.25
2023-03-17T19:48:48.473Z,6.20
2023-03-17T19:51:52.633Z,6.25
2023-03-17T19:54:59.803Z,6.22
2023-03-17T19:58:06.274Z,6.33
2023-03-17T20:01:11.120Z,6.25
2023-03-17T20:04:20.174Z,6.25
2023-03-17T20:07:25.300Z,6.27
2023-03-17T20:10:30.130Z,6.21
2023-03-17T20:13:36.594Z,6.19
2023-03-17T20:16:42.649Z,6.23
2023-03-17T20:19:47.703Z,6.19
2023-03-17T20:22:52.449Z,6.07
2023-03-17T20:25:57.725Z,6.14
2023-03-17T20:29:02.373Z,6.12
2023-03-17T20:32:07.458Z,6.00
2023-03-17T20:35:15.401Z,6.03
2023-03-17T20:38:19.659Z,6.08
2023-03-17T20:41:25.715Z,6.14
2023-03-17T20:44:29.615Z,6.14
2023-03-17T20:47:34.047Z,6.14
2023-03-17T20:50:39.304Z,5.98
2023-03-17T20:53:47.394Z,5.91
2023-03-17T20:56:56.480Z,5.84
2023-03-17T21:00:01.504Z,5.79
2023-03-17T21:03:07.233Z,5.71
2023-03-17T21:06:23.051Z,5.62
2023-03-17T21:09:28.972Z,5.45
2023-03-17T21:12:33.280Z,5.50
2023-03-17T21:15:36.812Z,5.56
2023-03-17T21:18:40.969Z,5.51
2023-03-17T21:21:47.021Z,5.43
2023-03-17T21:24:51.137Z,5.34
2023-03-17T21:27:54.173Z,5.25
2023-03-17T21:30:58.669Z,5.30
2023-03-17T21:34:02.466Z,5.19
2023-03-17T21:37:07.967Z,5.26
2023-03-17T21:40:13.147Z,5.25
2023-03-17T21:43:16.622Z,5.28
2023-03-17T21:46:20.154Z,5.24
2023-03-17T21:49:24.902Z,5.17
2023-03-17T21:52:27.989Z,5.20
2023-03-17T21:55:32.316Z,5.18
2023-03-17T21:58:35.621Z,5.15
2023-03-17T22:01:39.781Z,5.12
2023-03-17T22:04:45.263Z,5.02
2023-03-17T22:07:48.520Z,4.97
2023-03-17T22:10:52.223Z,4.89
2023-03-17T22:13:55.955Z,4.81
2023-03-17T22:16:59.193Z,4.61
2023-03-17T22:20:02.304Z,4.41
2023-03-17T22:23:05.547Z,4.31
2023-03-17T22:26:19.296Z,4.33
2023-03-17T22:29:22.517Z,4.27
2023-03-17T22:32:25.529Z,4.36
2023-03-17T22:35:28.864Z,4.35
2023-03-17T22:38:32.119Z,4.35
2023-03-17T22:41:35.348Z,4.32
2023-03-17T22:44:39.172Z,4.30
2023-03-17T22:47:42.615Z,4.29
2023-03-17T22:50:45.708Z,4.21
2023-03-17T22:53:50.014Z,4.08
2023-03-17T22:56:53.636Z,4.05
2023-03-17T22:59:58.688Z,3.98
2023-03-17T23:03:02.406Z,3.86
2023-03-17T23:06:07.637Z,3.92
2023-03-17T23:09:11.605Z,3.85
2023-03-17T23:12:14.909Z,3.72
2023-03-17T23:15:18.987Z,3.68
2023-03-17T23:18:22.592Z,3.68
2023-03-17T23:21:31.123Z,3.61
2023-03-17T23:24:34.478Z,3.66
2023-03-17T23:27:37.490Z,3.58
2023-03-17T23:30:41.529Z,3.53
2023-03-17T23:33:44.491Z,3.53
2023-03-17T23:36:48.544Z,3.35
2023-03-17T23:39:51.499Z,3.22
2023-03-17T23:42:55.286Z,3.31
2023-03-17T23:45:58.472Z,3.38
2023-03-17T23:49:01.711Z,3.29
2023-03-17T23:52:04.913Z,3.36
2023-03-17T23:55:10.225Z,3.32
2023-03-17T23:58:15.784Z,3.41
